createdAt,value
2023-03-12T00:01:18.741Z,95941.09
2023-03-12T00:02:50.538Z,95944.97
2023-03-12T00:04:22.201Z,95942.31
2023-03-12T00:05:53.821Z,95944.50
2023-03-12T00:07:25.456Z,95948.22
2023-03-12T00:08:57.564Z,95940.47
2023-03-12T00:10:30.118Z,95946.81
2023-03-12T00:12:01.697Z,95948.19
2023-03-12T00:13:33.371Z,95947.91
2023-03-12T00:15:07.900Z,95955.66
2023-03-12T00:16:39.550Z,95947.75
2023-03-12T00:18:11.195Z,95955.19
2023-03-12T00:19:42.769Z,95956.59
2023-03-12T00:21:14.426Z,95952.25
2023-03-12T00:22:46.098Z,95954.88
2023-03-12T00:24:17.770Z,95958.16
2023-03-12T00:25:49.428Z,95960.94
2023-03-12T00:27:21.104Z,95960.78
2023-03-12T00:28:52.790Z,95964.00
2023-03-12T00:30:28.328Z,95964.03
2023-03-12T00:31:59.986Z,95962.03
2023-03-12T00:33:31.632Z,95961.09
2023-03-12T00:35:03.905Z,95961.72
2023-03-12T00:36:35.566Z,95972.56
2023-03-12T00:38:07.183Z,95971.81
2023-03-12T00:39:38.797Z,95967.31
2023-03-12T00:41:10.532Z,95968.38
2023-03-12T00:42:42.243Z,95970.88
2023-03-12T00:44:13.851Z,95970.09
2023-03-12T00:45:46.859Z,95974.44
2023-03-12T00:47:18.583Z,95973.34
2023-03-12T00:48:50.212Z,95966.06
2023-03-12T00:50:21.861Z,95970.25
2023-03-12T00:51:54.164Z,95971.34
2023-03-12T00:53:25.852Z,95968.53
2023-03-12T00:54:58.953Z,95973.03
2023-03-12T00:56:30.673Z,95976.75
2023-03-12T00:58:02.322Z,95973.03
2023-03-12T00:59:34.041Z,95961.25
2023-03-12T01:01:07.164Z,95965.75
2023-03-12T01:02:39.009Z,95975.38
2023-03-12T01:04:10.733Z,95964.66
2023-03-12T01:05:42.402Z,95970.25
2023-03-12T01:07:14.055Z,95967.44
2023-03-12T01:08:45.729Z,95966.06
2023-03-12T01:10:18.902Z,95962.19
2023-03-12T01:11:50.547Z,95978.63
2023-03-12T01:13:22.153Z,95978.78
2023-03-12T01:14:53.916Z,95983.13
2023-03-12T01:16:28.408Z,95968.06
2023-03-12T01:18:00.114Z,95975.22
2023-03-12T01:19:31.919Z,95980.03
2023-03-12T01:21:04.146Z,95975.22
2023-03-12T01:22:36.397Z,95974.13
2023-03-12T01:24:08.347Z,95969.16
2023-03-12T01:25:40.948Z,95976.59
2023-03-12T01:27:12.600Z,95969.16
2023-03-12T01:28:44.410Z,95969.94
2023-03-12T01:30:16.272Z,95969.63
2023-03-12T01:31:49.363Z,95963.25
2023-03-12T01:33:22.819Z,95967.16
2023-03-12T01:34:54.571Z,95970.56
2023-03-12T01:36:27.274Z,95971.19
2023-03-12T01:37:58.893Z,95976.47
2023-03-12T01:39:30.676Z,95980.19
2023-03-12T01:41:02.339Z,95983.13
2023-03-12T01:42:34.005Z,95972.72
2023-03-12T01:44:06.119Z,95979.72
2023-03-12T01:46:04.830Z,95971.03
2023-03-12T01:47:37.802Z,95979.72
2023-03-12T01:49:10.240Z,95976.16
2023-03-12T01:50:41.879Z,95975.69
2023-03-12T01:52:14.203Z,95979.41
2023-03-12T01:53:47.329Z,95981.56
2023-03-12T01:55:19.032Z,95982.03
2023-03-12T01:56:50.696Z,95976.91
2023-03-12T01:58:22.288Z,95982.03
2023-03-12T01:59:56.067Z,95978.63
2023-03-12T02:01:27.894Z,95978.94
2023-03-12T02:03:03.639Z,95972.41
2023-03-12T02:04:35.512Z,95974.13
2023-03-12T02:06:08.330Z,95976.28
2023-03-12T02:07:40.018Z,95970.41
2023-03-12T02:09:12.735Z,95972.72
2023-03-12T02:10:44.465Z,95975.84
2023-03-12T02:12:16.127Z,95971.03
2023-03-12T02:13:47.757Z,95970.72
2023-03-12T02:15:19.399Z,95971.34
2023-03-12T02:16:51.121Z,95970.09
2023-03-12T02:18:24.118Z,95971.94
2023-03-12T02:20:00.152Z,95961.56
2023-03-12T02:21:33.764Z,95966.84
2023-03-12T02:23:07.187Z,95965.63
2023-03-12T02:24:41.094Z,95974.13
2023-03-12T02:26:14.087Z,95971.34
2023-03-12T02:27:45.669Z,95974.00
2023-03-12T02:29:17.349Z,95973.81
2023-03-12T02:30:50.329Z,95979.72
2023-03-12T02:32:24.553Z,95979.56
2023-03-12T02:33:56.276Z,95970.09
2023-03-12T02:35:27.956Z,95973.03
2023-03-12T02:36:59.617Z,95970.88
2023-03-12T02:38:37.542Z,95968.38
2023-03-12T02:40:13.348Z,95980.66
2023-03-12T02:41:48.272Z,95974.44
2023-03-12T02:43:20.959Z,95981.13
2023-03-12T02:44:52.604Z,95976.44
2023-03-12T02:46:24.309Z,95980.97
2023-03-12T02:47:56.018Z,95976.16
2023-03-12T02:49:29.146Z,95977.84
2023-03-12T02:51:00.928Z,95970.72
2023-03-12T02:52:35.613Z,95972.41
2023-03-12T02:54:07.374Z,95983.59
2023-03-12T02:55:39.037Z,95979.72
2023-03-12T02:57:12.069Z,95985.78
2023-03-12T02:58:44.730Z,95986.38
2023-03-12T03:00:17.522Z,95993.69
2023-03-12T03:01:52.587Z,95997.09
2023-03-12T03:03:24.240Z,95989.03
2023-03-12T03:04:55.854Z,95996.19
2023-03-12T03:06:27.582Z,95998.19
2023-03-12T03:07:59.236Z,95996.63
2023-03-12T03:09:30.830Z,95998.50
2023-03-12T03:11:03.613Z,95995.84
2023-03-12T03:12:36.777Z,95998.94
2023-03-12T03:14:08.473Z,95997.88
2023-03-12T03:15:40.673Z,95996.47
2023-03-12T03:17:12.279Z,96005.31
2023-03-12T03:18:43.985Z,96003.16
2023-03-12T03:20:16.017Z,96003.00
2023-03-12T03:21:47.643Z,96002.84
2023-03-12T03:23:19.288Z,95997.75
2023-03-12T03:24:50.914Z,95999.13
2023-03-12T03:26:22.867Z,96007.81
2023-03-12T03:27:55.887Z,96007.81
2023-03-12T03:29:27.541Z,96008.59
2023-03-12T03:31:01.397Z,96005.81
2023-03-12T03:32:33.158Z,96009.19
2023-03-12T03:34:04.838Z,96009.19
2023-03-12T03:35:36.523Z,96007.66
2023-03-12T03:37:08.145Z,95998.34
2023-03-12T03:38:39.792Z,96005.50
2023-03-12T03:40:12.485Z,96003.78
2023-03-12T03:41:45.772Z,96007.34
2023-03-12T03:43:18.728Z,96009.38
2023-03-12T03:44:50.301Z,96000.38
2023-03-12T03:46:22.014Z,95998.34
2023-03-12T03:47:54.628Z,95992.00
2023-03-12T03:49:26.293Z,95993.53
2023-03-12T03:51:00.010Z,95997.28
2023-03-12T03:52:31.992Z,95991.22
2023-03-12T03:54:03.687Z,95992.47
2023-03-12T03:55:36.485Z,95986.38
2023-03-12T03:57:08.171Z,95980.81
2023-03-12T03:58:41.173Z,95981.75
2023-03-12T04:00:14.333Z,95980.19
2023-03-12T04:01:45.914Z,95978.78
2023-03-12T04:03:17.660Z,95979.88
2023-03-12T04:04:49.351Z,95974.59
2023-03-12T04:06:21.037Z,95975.06
2023-03-12T04:07:52.899Z,95976.47
2023-03-12T04:09:24.493Z,95972.59
2023-03-12T04:10:56.100Z,95968.84
2023-03-12T04:12:28.070Z,95971.34
2023-03-12T04:14:11.934Z,95963.44
2023-03-12T04:15:46.890Z,95962.34
2023-03-12T04:17:18.504Z,95956.44
2023-03-12T04:18:50.145Z,95956.13
2023-03-12T04:20:21.786Z,95960.31
2023-03-12T04:21:53.425Z,95959.69
2023-03-12T04:23:25.075Z,95948.84
2023-03-12T04:24:57.017Z,95944.63
2023-03-12T04:26:28.665Z,95947.91
2023-03-12T04:28:01.266Z,95939.06
2023-03-12T04:29:34.245Z,95933.78
2023-03-12T04:31:06.916Z,95946.03
2023-03-12T04:32:38.654Z,95944.63
2023-03-12T04:34:12.571Z,95944.19
2023-03-12T04:35:50.185Z,95948.50
2023-03-12T04:37:22.070Z,95951.31
2023-03-12T04:38:54.350Z,95951.31
2023-03-12T04:40:25.984Z,95959.22
2023-03-12T04:41:57.644Z,95970.56
2023-03-12T04:43:29.358Z,95968.69
2023-03-12T04:45:02.328Z,95971.97
2023-03-12T04:46:33.993Z,95981.75
2023-03-12T04:48:05.701Z,95988.88
2023-03-12T04:49:38.202Z,95972.75
2023-03-12T04:51:09.818Z,95960.03
2023-03-12T04:52:41.457Z,95975.69
2023-03-12T04:54:13.184Z,95980.34
2023-03-12T04:55:44.785Z,95978.16
2023-03-12T04:57:16.414Z,95978.63
2023-03-12T04:58:48.011Z,95977.09
2023-03-12T05:00:22.143Z,95970.41
2023-03-12T05:01:53.774Z,95970.88
2023-03-12T05:03:25.414Z,95972.72
2023-03-12T05:04:57.581Z,95970.25
2023-03-12T05:06:29.334Z,95966.84
2023-03-12T05:08:01.009Z,95970.09
2023-03-12T05:09:32.733Z,95967.44
2023-03-12T05:11:04.753Z,95970.72
2023-03-12T05:12:36.377Z,95965.75
2023-03-12T05:14:08.804Z,95961.56
2023-03-12T05:15:41.914Z,95958.47
2023-03-12T05:17:13.686Z,95953.66
2023-03-12T05:18:45.424Z,95956.88
2023-03-12T05:20:19.873Z,95949.91
2023-03-12T05:21:51.490Z,95949.44
2023-03-12T05:23:23.084Z,95956.59
2023-03-12T05:24:54.760Z,95949.13
2023-03-12T05:26:28.003Z,95952.09
2023-03-12T05:27:59.592Z,95953.63
2023-03-12T05:29:35.342Z,95959.69
2023-03-12T05:31:09.435Z,95955.19
2023-03-12T05:32:41.100Z,95958.00
2023-03-12T05:34:12.864Z,95953.03
2023-03-12T05:35:44.517Z,95960.31
2023-03-12T05:37:16.158Z,95958.13
2023-03-12T05:38:47.751Z,95955.97
2023-03-12T05:40:19.426Z,95948.06
2023-03-12T05:41:51.079Z,95954.41
2023-03-12T05:43:22.820Z,95953.19
2023-03-12T05:44:54.440Z,95952.88
2023-03-12T05:46:27.656Z,95953.50
2023-03-12T05:47:59.284Z,95956.59
2023-03-12T05:49:31.257Z,95949.75
2023-03-12T05:51:02.941Z,95957.50
2023-03-12T05:52:34.580Z,95958.75
2023-03-12T05:54:06.580Z,95958.59
2023-03-12T05:55:38.782Z,95953.78
2023-03-12T05:57:10.342Z,95953.03
2023-03-12T05:58:42.050Z,95960.03
2023-03-12T06:00:14.574Z,95959.88
2023-03-12T06:01:47.708Z,95964.50
2023-03-12T06:03:23.772Z,95967.28
2023-03-12T06:04:56.945Z,95965.25
2023-03-12T06:06:30.175Z,95972.41
2023-03-12T06:08:01.820Z,95973.03
2023-03-12T06:09:36.911Z,95981.28
2023-03-12T06:11:08.555Z,95968.38
2023-03-12T06:12:40.253Z,95969.47
2023-03-12T06:14:11.852Z,95969.31
2023-03-12T06:15:43.562Z,95960.75
2023-03-12T06:17:16.895Z,95963.88
2023-03-12T06:18:48.699Z,95965.44
2023-03-12T06:20:20.601Z,95962.50
2023-03-12T06:21:52.204Z,95971.34
2023-03-12T06:23:24.364Z,95968.38
2023-03-12T06:24:55.967Z,95971.03
2023-03-12T06:26:28.084Z,95968.25
2023-03-12T06:27:59.689Z,95958.16
2023-03-12T06:29:31.277Z,95961.25
2023-03-12T06:31:02.981Z,95960.94
2023-03-12T06:32:36.057Z,95960.78
2023-03-12T06:34:08.267Z,95970.25
2023-03-12T06:35:39.859Z,95964.97
2023-03-12T06:37:11.793Z,95967.28
2023-03-12T06:38:43.590Z,95970.88
2023-03-12T06:40:15.296Z,95975.06
2023-03-12T06:41:46.904Z,95985.78
2023-03-12T06:43:18.621Z,95985.31
2023-03-12T06:44:50.398Z,95983.91
2023-03-12T06:46:22.255Z,95978.78
2023-03-12T06:47:55.270Z,95975.84
2023-03-12T06:49:32.040Z,95968.53
2023-03-12T06:51:03.892Z,95975.22
2023-03-12T06:52:35.590Z,95975.69
2023-03-12T06:54:07.177Z,95983.28
2023-03-12T06:55:38.945Z,95977.72
2023-03-12T06:57:10.592Z,95990.13
2023-03-12T06:58:42.261Z,95995.06
2023-03-12T07:00:14.490Z,95998.63
2023-03-12T07:01:46.182Z,96003.13
2023-03-12T07:03:19.144Z,95989.66
2023-03-12T07:04:50.768Z,95987.47
2023-03-12T07:06:23.270Z,95993.53
2023-03-12T07:07:54.869Z,95990.13
2023-03-12T07:09:26.486Z,95988.72
2023-03-12T07:11:01.100Z,95987.94
2023-03-12T07:12:33.064Z,95990.28
2023-03-12T07:14:04.718Z,95995.53
2023-03-12T07:15:36.350Z,95992.13
2023-03-12T07:17:07.948Z,95994.31
2023-03-12T07:18:40.973Z,96003.31
2023-03-12T07:20:13.255Z,96004.22
2023-03-12T07:21:44.831Z,96005.63
2023-03-12T07:23:16.622Z,96011.06
2023-03-12T07:24:48.179Z,96013.22
2023-03-12T07:26:20.251Z,96010.63
2023-03-12T07:27:51.820Z,96014.47
2023-03-12T07:29:23.517Z,96006.88
2023-03-12T07:31:00.377Z,96014.94
2023-03-12T07:32:33.533Z,96013.09
2023-03-12T07:34:06.835Z,96015.25
2023-03-12T07:35:39.248Z,96015.25
2023-03-12T07:37:11.044Z,96016.22
2023-03-12T07:38:42.690Z,96018.38
2023-03-12T07:40:14.345Z,96025.66
2023-03-12T07:41:46.045Z,96031.06
2023-03-12T07:43:20.269Z,96029.97
2023-03-12T07:44:52.088Z,96030.63
2023-03-12T07:46:23.747Z,96034.03
2023-03-12T07:47:55.491Z,96029.97
2023-03-12T07:49:28.466Z,96023.63
2023-03-12T07:51:00.132Z,96030.63
2023-03-12T07:52:31.872Z,96030.28
2023-03-12T07:54:03.626Z,96027.00
2023-03-12T07:55:35.300Z,96029.78
2023-03-12T07:57:07.105Z,96027.19
2023-03-12T07:58:39.273Z,96033.88
2023-03-12T08:00:12.394Z,96031.41
2023-03-12T08:01:45.421Z,96035.75
2023-03-12T08:03:18.282Z,96040.50
2023-03-12T08:04:51.630Z,96042.97
2023-03-12T08:06:23.271Z,96043.63
2023-03-12T08:07:54.977Z,96038.00
2023-03-12T08:09:26.567Z,96048.91
2023-03-12T08:11:00.121Z,96047.50
2023-03-12T08:12:31.707Z,96048.25
2023-03-12T08:14:03.448Z,96046.84
2023-03-12T08:15:35.105Z,96043.47
2023-03-12T08:17:06.704Z,96047.34
2023-03-12T08:18:38.443Z,96044.06
2023-03-12T08:20:13.219Z,96053.69
2023-03-12T08:21:45.220Z,96048.91
2023-03-12T08:23:16.857Z,96053.56
2023-03-12T08:24:48.888Z,96057.56
2023-03-12T08:26:20.541Z,96056.31
2023-03-12T08:27:52.219Z,96055.22
2023-03-12T08:29:23.859Z,96052.69
2023-03-12T08:30:56.077Z,96059.41
2023-03-12T08:32:27.794Z,96060.53
2023-03-12T08:33:59.416Z,96065.66
2023-03-12T08:35:32.450Z,96060.66
2023-03-12T08:37:04.265Z,96063.44
2023-03-12T08:38:35.905Z,96068.59
2023-03-12T08:40:13.289Z,96075.59
2023-03-12T08:41:44.992Z,96076.97
2023-03-12T08:43:16.615Z,96078.38
2023-03-12T08:44:48.240Z,96079.59
2023-03-12T08:46:19.971Z,96081.44
2023-03-12T08:47:51.578Z,96079.44
2023-03-12T08:49:23.266Z,96087.00
2023-03-12T08:50:56.906Z,96089.06
2023-03-12T08:52:28.506Z,96080.91
2023-03-12T08:54:00.127Z,96086.78
2023-03-12T08:55:31.719Z,96082.06
2023-03-12T08:57:03.798Z,96088.47
2023-03-12T08:58:35.612Z,96096.41
2023-03-12T09:00:11.891Z,96088.00
2023-03-12T09:01:44.011Z,96083.16
2023-03-12T09:03:15.687Z,96092.66
2023-03-12T09:04:47.895Z,96094.78
2023-03-12T09:06:20.998Z,96094.28
2023-03-12T09:07:52.616Z,96095.19
2023-03-12T09:09:24.479Z,96097.97
2023-03-12T09:10:56.125Z,96093.13
2023-03-12T09:12:27.783Z,96089.72
2023-03-12T09:14:33.494Z,96093.91
2023-03-12T09:15:51.256Z,96092.19
2023-03-12T09:17:22.843Z,96097.00
2023-03-12T09:18:54.649Z,96093.06
2023-03-12T09:20:26.443Z,96094.88
2023-03-12T09:21:59.463Z,96089.56
2023-03-12T09:23:31.213Z,96089.56
2023-03-12T09:25:02.871Z,96106.34
2023-03-12T09:26:34.585Z,96101.97
2023-03-12T09:28:06.203Z,96094.44
2023-03-12T09:29:46.533Z,96106.25
2023-03-12T09:31:25.030Z,96104.50
2023-03-12T09:32:56.985Z,96103.22
2023-03-12T09:34:28.668Z,96108.31
2023-03-12T09:36:00.627Z,96112.72
2023-03-12T09:37:33.794Z,96115.81
2023-03-12T09:39:05.931Z,96120.66
2023-03-12T09:40:38.426Z,96116.91
2023-03-12T09:42:23.254Z,96117.81
2023-03-12T09:43:56.656Z,96121.38
2023-03-12T09:45:29.766Z,96119.81
2023-03-12T09:47:02.654Z,96126.66
2023-03-12T09:48:35.263Z,96129.47
2023-03-12T09:50:15.527Z,96128.25
2023-03-12T09:51:49.347Z,96129.50
2023-03-12T09:53:26.153Z,96129.63
2023-03-12T09:55:01.273Z,96129.31
2023-03-12T09:56:32.872Z,96125.88
2023-03-12T09:58:04.565Z,96125.88
2023-03-12T09:59:37.003Z,96129.03
2023-03-12T10:01:13.588Z,96132.28
2023-03-12T10:02:53.740Z,96126.19
2023-03-12T10:04:52.562Z,96133.63
2023-03-12T10:06:32.867Z,96128.81
2023-03-12T10:08:23.167Z,96136.56
2023-03-12T10:10:18.703Z,96137.16
2023-03-12T10:11:52.885Z,96132.84
2023-03-12T10:13:57.852Z,96136.06
2023-03-12T10:15:35.114Z,96142.91
2023-03-12T10:17:16.542Z,96132.88
2023-03-12T10:18:58.403Z,96137.06
2023-03-12T10:20:46.213Z,96142.38
2023-03-12T10:22:22.413Z,96132.66
2023-03-12T10:24:02.657Z,96136.88
2023-03-12T10:25:37.974Z,96139.66
2023-03-12T10:27:11.244Z,96130.13
2023-03-12T10:28:43.863Z,96131.56
2023-03-12T10:30:17.915Z,96136.09
2023-03-12T10:31:52.765Z,96143.06
2023-03-12T10:33:28.266Z,96140.88
2023-03-12T10:35:00.337Z,96132.59
2023-03-12T10:36:35.836Z,96132.53
2023-03-12T10:38:10.962Z,96138.72
2023-03-12T10:39:45.449Z,96130.03
2023-03-12T10:41:20.473Z,96136.44
2023-03-12T10:42:52.110Z,96134.91
2023-03-12T10:44:24.635Z,96131.34
2023-03-12T10:45:59.390Z,96125.72
2023-03-12T10:47:37.173Z,96127.41
2023-03-12T10:49:23.724Z,96138.00
2023-03-12T10:51:06.110Z,96133.25
2023-03-12T10:52:37.724Z,96138.34
2023-03-12T10:54:20.760Z,96141.38
2023-03-12T10:56:00.032Z,96150.53
2023-03-12T10:57:40.769Z,96154.09
2023-03-12T10:59:20.725Z,96152.00
2023-03-12T11:00:56.870Z,96150.63
2023-03-12T11:02:33.754Z,96145.31
2023-03-12T11:04:09.296Z,96151.44
2023-03-12T11:05:48.618Z,96153.84
2023-03-12T11:07:23.068Z,96159.03
2023-03-12T11:09:17.153Z,96156.50
2023-03-12T11:10:49.192Z,96154.81
2023-03-12T11:12:25.329Z,96164.91
2023-03-12T11:14:06.513Z,96154.88
2023-03-12T11:15:39.317Z,96166.22
2023-03-12T11:17:20.194Z,96166.25
2023-03-12T11:18:56.886Z,96162.25
2023-03-12T11:20:28.999Z,96166.81
2023-03-12T11:22:01.465Z,96167.91
2023-03-12T11:23:33.689Z,96167.91
2023-03-12T11:25:06.646Z,96170.56
2023-03-12T11:26:44.510Z,96167.88
2023-03-12T11:28:20.186Z,96170.78
2023-03-12T11:29:56.028Z,96164.28
2023-03-12T11:31:29.225Z,96170.69
2023-03-12T11:33:05.472Z,96167.19
2023-03-12T11:34:37.831Z,96178.41
2023-03-12T11:36:28.839Z,96168.63
2023-03-12T11:38:06.306Z,96181.53
2023-03-12T11:39:50.184Z,96178.41
2023-03-12T11:41:31.636Z,96176.19
2023-03-12T11:43:12.383Z,96180.06
2023-03-12T11:44:55.183Z,96175.44
2023-03-12T11:46:33.961Z,96187.84
2023-03-12T11:48:10.947Z,96187.28
2023-03-12T11:49:54.570Z,96175.59
2023-03-12T11:51:31.896Z,96185.75
2023-03-12T11:53:14.009Z,96189.00
2023-03-12T11:55:24.468Z,96183.53
2023-03-12T11:56:56.782Z,96192.75
2023-03-12T11:58:39.122Z,96197.41
2023-03-12T12:00:14.116Z,96195.66
2023-03-12T12:01:55.570Z,96190.91
2023-03-12T12:03:36.353Z,96189.16
2023-03-12T12:05:32.063Z,96191.81
2023-03-12T12:07:08.441Z,96184.94
2023-03-12T12:08:54.539Z,96185.16
2023-03-12T12:10:28.873Z,96180.41
2023-03-12T12:12:09.680Z,96188.94
2023-03-12T12:13:47.314Z,96183.63
2023-03-12T12:15:24.078Z,96185.28
2023-03-12T12:17:13.438Z,96182.66
2023-03-12T12:18:52.305Z,96189.50
2023-03-12T12:20:37.784Z,96190.53
2023-03-12T12:22:20.588Z,96192.41
2023-03-12T12:23:54.801Z,96187.66
2023-03-12T12:25:48.419Z,96181.47
2023-03-12T12:27:23.431Z,96170.00
2023-03-12T12:31:07.012Z,96166.13
2023-03-12T12:32:52.044Z,96157.84
2023-03-12T12:34:41.960Z,96167.13
2023-03-12T12:36:13.804Z,96165.81
2023-03-12T12:37:54.253Z,96165.47
2023-03-12T12:39:31.508Z,96160.72
2023-03-12T12:41:12.489Z,96159.63
2023-03-12T12:42:54.753Z,96155.81
2023-03-12T12:44:31.141Z,96161.47
2023-03-12T12:46:05.233Z,96151.63
2023-03-12T12:47:41.033Z,96162.66
2023-03-12T12:49:18.588Z,96156.47
2023-03-12T12:50:50.378Z,96155.03
2023-03-12T12:52:22.113Z,96161.88
2023-03-12T12:53:55.507Z,96153.81
2023-03-12T12:55:28.410Z,96158.22
2023-03-12T12:57:05.252Z,96146.00
2023-03-12T12:58:45.644Z,96144.38
2023-03-12T13:00:24.468Z,96130.31
2023-03-12T13:02:02.818Z,96129.00
2023-03-12T13:03:37.136Z,96138.94
2023-03-12T13:05:20.829Z,96139.44
2023-03-12T13:06:57.098Z,96136.97
2023-03-12T13:08:33.285Z,96138.34
2023-03-12T13:10:07.572Z,96148.47
2023-03-12T13:11:43.738Z,96136.19
2023-03-12T13:13:29.432Z,96136.28
2023-03-12T13:15:01.493Z,96139.19
2023-03-12T13:16:34.134Z,96148.47
2023-03-12T13:18:08.546Z,96155.59
2023-03-12T13:19:44.958Z,96148.31
2023-03-12T13:21:24.502Z,96147.09
2023-03-12T13:23:01.370Z,96145.03
2023-03-12T13:24:33.769Z,96151.41
2023-03-12T13:26:07.778Z,96140.94
2023-03-12T13:27:40.022Z,96145.63
2023-03-12T13:29:21.719Z,96138.16
2023-03-12T13:30:53.694Z,96137.66
2023-03-12T13:32:53.861Z,96143.66
2023-03-12T13:34:52.693Z,96143.84
2023-03-12T13:38:34.856Z,96141.22
2023-03-12T13:40:33.530Z,96142.19
2023-03-12T13:42:26.670Z,96141.00
2023-03-12T13:43:58.554Z,96140.75
2023-03-12T13:45:31.916Z,96145.72
2023-03-12T13:47:04.378Z,96145.44
2023-03-12T13:48:35.994Z,96147.41
2023-03-12T13:50:08.414Z,96145.78
2023-03-12T13:51:55.585Z,96137.38
2023-03-12T13:53:27.722Z,96145.34
2023-03-12T13:55:01.007Z,96149.25
2023-03-12T13:56:32.812Z,96154.88
2023-03-12T13:58:07.754Z,96152.97
2023-03-12T13:59:43.860Z,96159.44
2023-03-12T14:01:17.565Z,96160.34
2023-03-12T14:02:50.041Z,96161.56
2023-03-12T14:04:22.764Z,96156.00
2023-03-12T14:05:55.279Z,96164.69
2023-03-12T14:07:44.407Z,96165.25
2023-03-12T14:09:19.165Z,96169.69
2023-03-12T14:11:00.616Z,96176.22
2023-03-12T14:12:34.761Z,96170.97
2023-03-12T14:14:41.277Z,96165.66
2023-03-12T14:16:16.878Z,96168.34
2023-03-12T14:17:54.541Z,96184.53
2023-03-12T14:19:27.066Z,96177.50
2023-03-12T14:20:59.486Z,96165.09
2023-03-12T14:22:33.695Z,96163.34
2023-03-12T14:24:07.816Z,96163.38
2023-03-12T14:25:44.631Z,96150.44
2023-03-12T14:27:22.171Z,96160.16
2023-03-12T14:29:06.725Z,96150.06
2023-03-12T14:30:44.605Z,96148.16
2023-03-12T14:32:28.754Z,96154.94
2023-03-12T14:34:16.078Z,96146.19
2023-03-12T14:36:28.747Z,96152.41
2023-03-12T14:38:09.149Z,96146.00
2023-03-12T14:39:45.278Z,96149.47
2023-03-12T14:41:21.124Z,96144.22
2023-03-12T14:42:52.813Z,96149.06
2023-03-12T14:44:25.854Z,96134.00
2023-03-12T14:45:58.284Z,96137.75
2023-03-12T14:47:30.163Z,96141.13
2023-03-12T14:49:02.012Z,96127.09
2023-03-12T14:50:37.655Z,96126.34
2023-03-12T14:52:11.259Z,96129.91
2023-03-12T14:53:47.030Z,96132.44
2023-03-12T14:55:20.097Z,96121.72
2023-03-12T14:56:51.803Z,96131.75
2023-03-12T14:58:23.706Z,96133.81
2023-03-12T14:59:58.443Z,96132.75
2023-03-12T15:01:48.160Z,96124.59
2023-03-12T15:03:19.804Z,96129.66
2023-03-12T15:04:55.253Z,96124.81
2023-03-12T15:06:30.794Z,96123.88
2023-03-12T15:08:03.195Z,96131.66
2023-03-12T15:09:36.370Z,96131.97
2023-03-12T15:11:08.225Z,96130.78
2023-03-12T15:12:40.192Z,96123.50
2023-03-12T15:14:14.389Z,96132.81
2023-03-12T15:15:47.253Z,96135.53
2023-03-12T15:17:19.743Z,96134.66
2023-03-12T15:18:51.402Z,96137.44
2023-03-12T15:20:23.000Z,96130.41
2023-03-12T15:21:54.658Z,96136.50
2023-03-12T15:23:26.436Z,96131.66
2023-03-12T15:25:03.404Z,96134.66
2023-03-12T15:26:38.035Z,96132.91
2023-03-12T15:28:25.225Z,96134.59
2023-03-12T15:29:57.557Z,96123.72
2023-03-12T15:31:41.350Z,96136.63
2023-03-12T15:33:22.031Z,96136.97
2023-03-12T15:34:54.281Z,96146.41
2023-03-12T15:36:27.300Z,96133.72
2023-03-12T15:37:58.933Z,96135.22
2023-03-12T15:39:31.560Z,96151.59
2023-03-12T15:41:06.857Z,96138.53
2023-03-12T15:42:40.350Z,96136.34
2023-03-12T15:44:19.643Z,96135.66
2023-03-12T15:45:56.928Z,96128.00
2023-03-12T15:47:29.593Z,96128.41
2023-03-12T15:49:01.245Z,96127.72
2023-03-12T15:50:34.889Z,96124.78
2023-03-12T15:52:07.563Z,96121.41
2023-03-12T15:53:39.216Z,96133.72
2023-03-12T15:55:22.549Z,96125.63
2023-03-12T15:56:57.372Z,96122.47
2023-03-12T15:58:31.574Z,96128.38
2023-03-12T16:00:16.304Z,96121.66
2023-03-12T16:01:48.509Z,96134.56
2023-03-12T16:03:20.507Z,96134.06
2023-03-12T16:04:52.150Z,96128.66
2023-03-12T16:06:26.289Z,96128.50
2023-03-12T16:07:58.907Z,96130.47
2023-03-12T16:09:30.670Z,96129.69
2023-03-12T16:11:12.699Z,96126.59
2023-03-12T16:12:45.732Z,96130.59
2023-03-12T16:14:18.822Z,96131.16
2023-03-12T16:15:53.330Z,96136.00
2023-03-12T16:18:23.035Z,96133.19
2023-03-12T16:19:30.300Z,96132.84
2023-03-12T16:21:01.982Z,96127.50
2023-03-12T16:22:33.718Z,96132.47
2023-03-12T16:24:05.647Z,96128.16
2023-03-12T16:25:37.507Z,96137.28
2023-03-12T16:27:13.999Z,96131.72
2023-03-12T16:28:47.156Z,96141.06
2023-03-12T16:30:20.804Z,96142.09
2023-03-12T16:31:54.429Z,96136.78
2023-03-12T16:33:26.283Z,96139.16
2023-03-12T16:34:58.169Z,96145.81
2023-03-12T16:36:29.870Z,96146.16
2023-03-12T16:38:01.572Z,96140.06
2023-03-12T16:39:33.411Z,96141.44
2023-03-12T16:41:05.042Z,96145.22
2023-03-12T16:42:36.687Z,96143.84
2023-03-12T16:44:13.646Z,96146.06
2023-03-12T16:45:46.803Z,96150.31
2023-03-12T16:47:18.523Z,96137.22
2023-03-12T16:48:50.828Z,96145.13
2023-03-12T16:50:22.792Z,96143.56
2023-03-12T16:51:54.518Z,96140.91
2023-03-12T16:53:26.338Z,96146.66
2023-03-12T16:54:58.267Z,96146.66
2023-03-12T16:56:29.912Z,96144.00
2023-03-12T16:58:01.567Z,96150.78
2023-03-12T16:59:38.034Z,96145.38
2023-03-12T17:01:11.934Z,96141.50
2023-03-12T17:02:43.567Z,96146.84
2023-03-12T17:04:15.219Z,96144.94
2023-03-12T17:05:46.990Z,96149.84
2023-03-12T17:07:18.699Z,96150.09
2023-03-12T17:08:50.300Z,96139.03
2023-03-12T17:10:22.313Z,96133.69
2023-03-12T17:11:53.918Z,96153.03
2023-03-12T17:13:26.367Z,96141.16
2023-03-12T17:14:59.572Z,96155.69
2023-03-12T17:16:31.323Z,96154.91
2023-03-12T17:18:04.435Z,96159.50
2023-03-12T17:19:36.087Z,96160.63
2023-03-12T17:21:09.852Z,96160.09
2023-03-12T17:22:41.579Z,96154.06
2023-03-12T17:24:16.869Z,96161.19
2023-03-12T17:25:48.486Z,96162.06
2023-03-12T17:27:20.137Z,96166.06
2023-03-12T17:28:51.742Z,96167.38
2023-03-12T17:30:24.773Z,96171.84
2023-03-12T17:31:56.419Z,96161.84
2023-03-12T17:33:29.733Z,96174.94
2023-03-12T17:35:06.800Z,96170.50
2023-03-12T17:36:50.561Z,96164.41
2023-03-12T17:38:22.318Z,96173.84
2023-03-12T17:39:53.964Z,96177.81
2023-03-12T17:41:28.833Z,96177.47
2023-03-12T17:43:01.687Z,96175.84
2023-03-12T17:44:34.664Z,96169.72
2023-03-12T17:46:07.917Z,96170.84
2023-03-12T17:47:39.665Z,96154.22
2023-03-12T17:49:11.272Z,96172.75
2023-03-12T17:50:42.990Z,96163.00
2023-03-12T17:52:17.323Z,96169.22
2023-03-12T17:53:51.638Z,96169.09
2023-03-12T17:55:23.226Z,96166.31
2023-03-12T17:58:08.919Z,96172.56
2023-03-12T17:59:23.477Z,96164.41
2023-03-12T18:00:55.177Z,96178.47
2023-03-12T18:03:11.976Z,96179.06
2023-03-12T18:04:46.955Z,96170.63
2023-03-12T18:06:19.859Z,96161.75
2023-03-12T18:07:51.907Z,96169.28
2023-03-12T18:09:23.536Z,96164.53
2023-03-12T18:10:55.220Z,96163.88
2023-03-12T18:12:26.892Z,96157.97
2023-03-12T18:13:58.524Z,96155.56
2023-03-12T18:15:32.624Z,96159.47
2023-03-12T18:17:04.366Z,96164.69
2023-03-12T18:18:37.448Z,96164.00
2023-03-12T18:20:36.270Z,96162.66
2023-03-12T18:22:14.044Z,96152.50
2023-03-12T18:23:46.271Z,96151.06
2023-03-12T18:25:17.970Z,96160.81
2023-03-12T18:26:51.623Z,96155.03
2023-03-12T18:28:24.251Z,96158.13
2023-03-12T18:29:55.874Z,96158.13
2023-03-12T18:31:29.631Z,96163.91
2023-03-12T18:33:03.631Z,96160.13
2023-03-12T18:34:37.649Z,96164.09